createdAt,value
2023-04-23T00:00:49.108Z,99.90
2023-04-23T00:03:27.411Z,99.90
2023-04-23T00:06:06.040Z,99.90
2023-04-23T00:08:43.734Z,99.90
2023-04-23T00:11:21.352Z,99.90
2023-04-23T00:14:00.988Z,99.90
2023-04-23T00:16:38.290Z,99.90
2023-04-23T00:19:14.913Z,99.90
2023-04-23T00:21:50.670Z,99.90
2023-04-23T00:24:26.547Z,99.90
2023-04-23T00:27:02.731Z,99.90
2023-04-23T00:29:41.652Z,99.90
2023-04-23T00:32:17.941Z,99.90
2023-04-23T00:34:54.845Z,99.90
2023-04-23T00:37:31.074Z,99.90
2023-04-23T00:40:11.351Z,99.90
2023-04-23T00:42:49.734Z,99.90
2023-04-23T00:45:28.956Z,99.90
2023-04-23T00:48:06.603Z,99.90
2023-04-23T00:50:41.021Z,99.90
2023-04-23T00:53:19.590Z,99.90
2023-04-23T00:55:54.924Z,99.90
2023-04-23T00:58:29.628Z,99.90
2023-04-23T01:01:09.082Z,99.90
2023-04-23T01:03:45.854Z,99.90
2023-04-23T01:06:22.127Z,99.90
2023-04-23T01:09:03.483Z,99.90
2023-04-23T01:11:39.743Z,99.90
2023-04-23T01:14:15.701Z,99.90
2023-04-23T01:17:12.597Z,99.90
2023-04-23T01:19:47.931Z,99.90
2023-04-23T01:22:28.274Z,99.90
2023-04-23T01:25:08.522Z,99.90
2023-04-23T01:27:46.178Z,99.90
2023-04-23T01:30:22.528Z,99.90
2023-04-23T01:32:58.891Z,99.90
2023-04-23T01:35:41.494Z,99.90
2023-04-23T01:38:23.098Z,99.90
2023-04-23T01:41:02.514Z,99.90
2023-04-23T01:43:38.690Z,99.90
2023-04-23T01:46:15.230Z,99.90
2023-04-23T01:48:51.247Z,99.90
2023-04-23T01:51:27.498Z,99.90
2023-04-23T01:54:07.411Z,99.90
2023-04-23T01:56:44.690Z,99.90
2023-04-23T01:59:19.987Z,99.90
2023-04-23T02:01:58.440Z,99.90
2023-04-23T02:04:36.325Z,99.90
2023-04-23T02:07:14.669Z,99.90
2023-04-23T02:09:53.923Z,99.90
2023-04-23T02:12:29.444Z,99.90
2023-04-23T02:15:08.357Z,99.90
2023-04-23T02:17:44.340Z,99.90
2023-04-23T02:20:19.394Z,99.90
2023-04-23T02:22:54.529Z,99.90
2023-04-23T02:25:34.182Z,99.90
2023-04-23T02:28:16.128Z,99.90
2023-04-23T02:30:52.222Z,99.90
2023-04-23T02:33:29.165Z,99.90
2023-04-23T02:36:04.910Z,99.90
2023-04-23T02:38:42.305Z,99.90
2023-04-23T02:41:21.950Z,99.90
2023-04-23T02:43:58.002Z,99.90
2023-04-23T02:46:33.437Z,99.90
2023-04-23T02:49:13.461Z,99.90
2023-04-23T02:51:49.828Z,99.90
2023-04-23T02:54:32.875Z,99.90
2023-04-23T02:57:15.085Z,99.90
2023-04-23T02:59:53.645Z,99.90
2023-04-23T03:02:33.003Z,99.90
2023-04-23T03:05:11.482Z,99.90
2023-04-23T03:07:49.562Z,99.90
2023-04-23T03:10:24.967Z,99.90
2023-04-23T03:13:02.498Z,99.90
2023-04-23T03:15:40.793Z,99.90
2023-04-23T03:18:17.844Z,99.90
2023-04-23T03:20:54.365Z,99.90
2023-04-23T03:23:30.481Z,99.90
2023-04-23T03:26:05.370Z,99.90
2023-04-23T03:28:43.823Z,99.90
2023-04-23T03:31:21.242Z,99.90
2023-04-23T03:33:58.291Z,99.90
2023-04-23T03:36:42.435Z,99.90
2023-04-23T03:39:21.606Z,99.90
2023-04-23T03:42:05.893Z,99.90
2023-04-23T03:44:47.175Z,99.90
2023-04-23T03:47:22.704Z,99.90
2023-04-23T03:50:00.376Z,99.90
2023-04-23T03:52:40.815Z,99.90
2023-04-23T03:55:23.434Z,99.90
2023-04-23T03:58:03.797Z,99.90
2023-04-23T04:00:57.982Z,99.90
2023-04-23T04:03:34.263Z,99.90
2023-04-23T04:06:10.396Z,99.90
2023-04-23T04:08:48.029Z,99.90
2023-04-23T04:11:23.381Z,99.90
2023-04-23T04:14:01.722Z,99.90
2023-04-23T04:16:41.289Z,99.90
2023-04-23T04:19:19.832Z,99.90
2023-04-23T04:21:56.929Z,99.90
2023-04-23T04:24:36.417Z,99.90
2023-04-23T04:27:14.726Z,99.90
2023-04-23T04:29:52.448Z,99.90
2023-04-23T04:32:31.739Z,99.90
2023-04-23T04:35:09.556Z,99.90
2023-04-23T04:37:49.638Z,99.90
2023-04-23T04:40:27.159Z,99.90
2023-04-23T04:43:02.445Z,99.90
2023-04-23T04:45:38.137Z,99.90
2023-04-23T04:48:17.895Z,99.90
2023-04-23T04:50:53.810Z,99.90
2023-04-23T04:53:31.290Z,99.90
2023-04-23T04:56:10.596Z,99.90
2023-04-23T04:58:46.796Z,99.90
2023-04-23T05:01:25.202Z,99.90
2023-04-23T05:04:04.151Z,99.90
2023-04-23T05:06:43.293Z,99.90
2023-04-23T05:09:24.980Z,99.90
2023-04-23T05:12:02.306Z,99.90
2023-04-23T05:14:39.437Z,99.90
2023-04-23T05:17:17.346Z,99.90
2023-04-23T05:19:59.732Z,99.90
2023-04-23T05:22:40.467Z,99.90
2023-04-23T05:25:15.500Z,99.90
2023-04-23T05:27:54.141Z,99.90
2023-04-23T05:30:35.426Z,99.90
2023-04-23T05:33:09.360Z,99.90
2023-04-23T05:35:46.280Z,99.90
2023-04-23T05:38:26.749Z,99.90
2023-04-23T05:41:04.683Z,99.90
2023-04-23T05:43:42.873Z,99.90
2023-04-23T05:46:21.505Z,99.90
2023-04-23T05:49:05.271Z,99.90
2023-04-23T05:51:46.576Z,99.90
2023-04-23T05:54:25.976Z,99.90
2023-04-23T05:57:04.119Z,99.90
2023-04-23T05:59:43.887Z,99.90
2023-04-23T06:02:21.439Z,99.90
2023-04-23T06:05:04.695Z,99.90
2023-04-23T06:07:44.181Z,99.90
2023-04-23T06:10:27.907Z,99.90
2023-04-23T06:13:06.402Z,99.90
2023-04-23T06:15:44.311Z,99.90
2023-04-23T06:18:19.598Z,99.90
2023-04-23T06:20:58.925Z,99.90
2023-04-23T06:23:37.472Z,99.90
2023-04-23T06:26:16.747Z,99.90
2023-04-23T06:29:02.233Z,99.90
2023-04-23T06:31:47.316Z,99.90
2023-04-23T06:34:44.012Z,99.90
2023-04-23T06:37:30.212Z,99.90
2023-04-23T06:40:05.812Z,99.90
2023-04-23T06:42:45.955Z,99.90
2023-04-23T06:45:47.266Z,99.90
2023-04-23T06:48:25.012Z,99.90
2023-04-23T06:51:03.587Z,99.90
2023-04-23T06:53:47.775Z,99.90
2023-04-23T06:56:27.666Z,99.90
2023-04-23T06:59:09.548Z,99.90
2023-04-23T07:01:55.193Z,99.90
2023-04-23T07:04:32.678Z,99.90
2023-04-23T07:07:12.788Z,99.90
2023-04-23T07:10:09.831Z,99.90
2023-04-23T07:13:06.543Z,99.90
2023-04-23T07:15:49.950Z,99.90
2023-04-23T07:18:48.415Z,99.90
2023-04-23T07:21:22.553Z,99.90
2023-04-23T07:24:08.988Z,99.90
2023-04-23T07:26:43.256Z,99.90
2023-04-23T07:29:26.872Z,99.90
2023-04-23T07:32:08.879Z,99.90
2023-04-23T07:34:50.881Z,99.90
2023-04-23T07:37:30.799Z,99.90
2023-04-23T07:40:12.216Z,99.90
2023-04-23T07:43:08.454Z,99.50
2023-04-23T07:45:55.877Z,99.10
2023-04-23T07:48:39.078Z,98.50
2023-04-23T07:51:15.500Z,98.70
2023-04-23T07:53:57.805Z,98.10
2023-04-23T07:56:38.392Z,98.60
2023-04-23T07:59:16.596Z,97.20
2023-04-23T08:01:57.633Z,96.90
2023-04-23T08:04:42.060Z,96.70
2023-04-23T08:10:15.090Z,96.90
2023-04-23T08:12:54.948Z,97.10
2023-04-23T08:15:34.716Z,97.40
2023-04-23T08:18:33.018Z,97.90
2023-04-23T08:21:18.038Z,97.60
2023-04-23T08:23:59.829Z,98.00
2023-04-23T08:26:38.811Z,98.10
2023-04-23T08:29:17.487Z,97.60
2023-04-23T08:34:55.860Z,97.80
2023-04-23T08:43:53.987Z,98.40
2023-04-23T08:46:45.822Z,97.60
2023-04-23T09:17:26.582Z,96.00
2023-04-23T09:20:24.072Z,95.10
2023-04-23T09:23:02.432Z,95.10
2023-04-23T09:25:38.334Z,95.40
2023-04-23T09:28:17.178Z,96.00
2023-04-23T09:30:54.435Z,96.00
2023-04-23T09:33:34.354Z,95.10
2023-04-23T09:36:20.515Z,94.60
2023-04-23T09:39:00.998Z,93.90
2023-04-23T09:41:43.213Z,93.30
2023-04-23T09:44:49.683Z,93.80
2023-04-23T09:48:00.026Z,93.00
2023-04-23T09:50:57.575Z,91.70
2023-04-23T09:53:59.855Z,91.10
2023-04-23T10:47:26.625Z,94.40
2023-04-23T10:50:21.954Z,94.40
2023-04-23T10:53:09.614Z,94.60
2023-04-23T10:55:45.803Z,94.60
2023-04-23T10:58:28.128Z,95.20
2023-04-23T11:04:14.090Z,94.90
2023-04-23T11:07:17.189Z,95.10
2023-04-23T11:10:11.372Z,96.30
2023-04-23T11:12:56.093Z,95.00
2023-04-23T11:22:15.695Z,94.40
2023-04-23T12:03:58.976Z,95.10
2023-04-23T12:07:05.878Z,96.30
2023-04-23T12:09:58.994Z,95.40
2023-04-23T12:12:53.795Z,95.20
2023-04-23T12:15:51.913Z,95.20
2023-04-23T12:22:02.248Z,95.40
2023-04-23T12:25:01.817Z,96.10
2023-04-23T12:27:48.941Z,96.70
2023-04-23T12:30:28.605Z,97.30
2023-04-23T12:33:16.223Z,97.30
2023-04-23T12:35:58.597Z,97.80
2023-04-23T12:38:44.039Z,97.60
2023-04-23T12:41:19.429Z,98.90
2023-04-23T12:43:59.290Z,98.90
2023-04-23T12:46:35.674Z,99.00
2023-04-23T12:49:14.688Z,98.60
2023-04-23T12:51:53.524Z,98.80
2023-04-23T12:54:33.243Z,99.30
2023-04-23T12:57:14.995Z,99.90
2023-04-23T12:59:55.499Z,99.90
2023-04-23T13:02:32.494Z,99.90
2023-04-23T13:05:10.560Z,99.60
2023-04-23T13:07:47.411Z,99.90
2023-04-23T13:10:37.463Z,99.90
2023-04-23T13:13:19.535Z,99.90
2023-04-23T13:16:00.538Z,99.90
2023-04-23T13:18:40.230Z,99.90
2023-04-23T13:21:16.585Z,99.90
2023-04-23T13:23:54.565Z,99.90
2023-04-23T13:26:33.522Z,99.90
2023-04-23T13:29:09.269Z,99.90
2023-04-23T13:31:45.107Z,99.90
2023-04-23T13:34:22.885Z,99.90
2023-04-23T13:36:58.662Z,99.90
2023-04-23T13:39:41.451Z,99.90
2023-04-23T13:42:22.296Z,99.90
2023-04-23T13:44:58.260Z,99.90
2023-04-23T13:47:35.813Z,99.90
2023-04-23T13:50:15.985Z,99.90
2023-04-23T13:52:52.164Z,99.90
2023-04-23T13:55:28.958Z,99.90
2023-04-23T13:58:12.256Z,99.90
2023-04-23T14:00:47.393Z,99.90
2023-04-23T14:03:24.167Z,99.90
2023-04-23T14:06:02.871Z,99.90
2023-04-23T14:08:37.328Z,99.90
2023-04-23T14:11:15.530Z,99.90
2023-04-23T14:13:58.790Z,99.90
2023-04-23T14:16:32.877Z,99.90
2023-04-23T14:19:10.460Z,99.90
2023-04-23T14:21:46.886Z,99.90
2023-04-23T14:24:26.656Z,99.90
2023-04-23T14:27:03.807Z,99.90
2023-04-23T14:29:52.209Z,99.90
2023-04-23T14:32:33.099Z,99.90
2023-04-23T14:35:12.096Z,99.90
2023-04-23T14:37:47.673Z,99.90
2023-04-23T14:40:23.902Z,99.90
2023-04-23T14:43:14.051Z,99.90
2023-04-23T14:45:58.549Z,99.90
2023-04-23T14:48:34.285Z,99.90
2023-04-23T14:51:09.946Z,99.90
2023-04-23T14:53:45.267Z,99.90
2023-04-23T14:56:23.725Z,99.90
2023-04-23T14:59:04.352Z,99.90
2023-04-23T15:01:39.127Z,99.90
2023-04-23T15:04:20.723Z,99.90
2023-04-23T15:06:57.276Z,99.90
2023-04-23T15:09:35.440Z,99.90
2023-04-23T15:12:16.821Z,99.90
2023-04-23T15:14:52.995Z,99.90
2023-04-23T15:17:29.823Z,99.90
2023-04-23T15:20:08.225Z,99.90
2023-04-23T15:22:49.975Z,99.90
2023-04-23T15:28:05.076Z,99.90
2023-04-23T15:30:41.235Z,99.90
2023-04-23T15:33:24.939Z,99.90
2023-04-23T15:36:30.570Z,99.90
2023-04-23T15:39:06.843Z,99.90
2023-04-23T15:41:44.759Z,99.90
2023-04-23T15:44:25.779Z,99.90
2023-04-23T15:47:00.363Z,99.90
2023-04-23T15:49:40.105Z,99.90
2023-04-23T15:52:23.054Z,99.90
2023-04-23T15:55:02.569Z,99.90
2023-04-23T15:57:38.876Z,99.90
2023-04-23T16:00:23.363Z,99.90
2023-04-23T16:03:06.240Z,99.90
2023-04-23T16:05:45.660Z,99.90
2023-04-23T16:08:28.936Z,99.90
2023-04-23T16:11:09.737Z,99.90
2023-04-23T16:13:47.172Z,99.90
2023-04-23T16:16:29.369Z,99.90
2023-04-23T16:19:11.384Z,99.90
2023-04-23T16:21:50.556Z,99.90
2023-04-23T16:24:55.463Z,99.90
2023-04-23T16:27:50.120Z,99.90
2023-04-23T16:30:31.846Z,99.90
2023-04-23T16:33:07.147Z,99.90
2023-04-23T16:35:56.658Z,99.90
2023-04-23T16:38:32.411Z,99.90
2023-04-23T16:41:16.218Z,99.90
2023-04-23T16:43:55.448Z,99.90
2023-04-23T16:46:36.029Z,99.90
2023-04-23T16:49:24.954Z,99.90
2023-04-23T16:52:04.622Z,99.90
2023-04-23T16:54:45.454Z,99.90
2023-04-23T16:57:27.023Z,99.90
2023-04-23T17:00:07.452Z,99.90
2023-04-23T17:02:47.903Z,99.90
2023-04-23T17:05:31.966Z,99.90
2023-04-23T17:08:16.630Z,99.90
2023-04-23T17:11:04.585Z,99.90
2023-04-23T17:13:47.384Z,99.90
2023-04-23T17:16:30.838Z,99.90
2023-04-23T17:19:10.148Z,99.90
2023-04-23T17:22:17.635Z,99.90
2023-04-23T17:24:57.409Z,99.90
2023-04-23T17:30:49.515Z,99.90
2023-04-23T17:33:40.853Z,99.90
2023-04-23T17:36:44.731Z,99.90
2023-04-23T17:42:39.034Z,99.90
2023-04-23T17:51:44.676Z,99.90
2023-04-23T17:57:19.337Z,99.90
2023-04-23T18:00:22.760Z,99.90
2023-04-23T18:03:05.388Z,99.90
2023-04-23T18:06:05.725Z,99.90
2023-04-23T18:08:45.933Z,99.90
2023-04-23T18:11:38.450Z,99.90
2023-04-23T18:14:17.054Z,99.90
2023-04-23T18:23:40.374Z,99.90
2023-04-23T18:32:41.069Z,99.90
2023-04-23T18:35:16.517Z,99.90
2023-04-23T18:37:58.377Z,99.90
2023-04-23T18:40:36.141Z,99.90
2023-04-23T18:43:19.375Z,99.90
2023-04-23T18:46:05.267Z,99.90
2023-04-23T18:49:09.607Z,99.90
2023-04-23T18:57:49.854Z,99.90
2023-04-23T19:00:38.369Z,99.90
2023-04-23T19:03:26.165Z,99.90
2023-04-23T19:06:16.061Z,99.90
2023-04-23T19:12:01.271Z,99.90
2023-04-23T19:14:50.080Z,99.90
2023-04-23T19:17:25.052Z,99.90
2023-04-23T19:20:11.906Z,99.90
2023-04-23T19:26:05.773Z,99.90
2023-04-23T19:31:53.162Z,99.90
2023-04-23T19:34:31.981Z,99.90
2023-04-23T19:37:18.465Z,99.90
2023-04-23T19:39:54.971Z,99.90
2023-04-23T19:42:42.383Z,99.90
2023-04-23T19:45:22.902Z,99.90
2023-04-23T19:48:13.766Z,99.90
2023-04-23T19:50:54.318Z,99.90
2023-04-23T19:53:31.854Z,99.90
2023-04-23T19:56:17.738Z,99.90
2023-04-23T19:59:13.981Z,99.90
2023-04-23T20:01:53.955Z,99.90
2023-04-23T20:04:40.557Z,99.90
2023-04-23T20:07:28.564Z,99.90
2023-04-23T20:10:06.248Z,99.90
2023-04-23T20:12:46.536Z,99.90
2023-04-23T20:15:29.809Z,99.90
2023-04-23T20:18:07.489Z,99.90
2023-04-23T20:20:50.207Z,99.90
2023-04-23T20:23:38.984Z,99.90
2023-04-23T20:26:28.145Z,99.90
2023-04-23T20:29:09.148Z,99.90
2023-04-23T20:31:53.590Z,99.90
2023-04-23T20:34:34.969Z,99.90
2023-04-23T20:37:35.087Z,99.90
2023-04-23T20:40:23.463Z,99.90
2023-04-23T20:43:14.183Z,99.90
2023-04-23T20:45:51.815Z,99.90
2023-04-23T20:48:37.925Z,99.90
2023-04-23T20:51:20.772Z,99.90
2023-04-23T20:53:58.050Z,99.90
2023-04-23T20:56:36.025Z,99.90
2023-04-23T20:59:20.349Z,99.90
2023-04-23T21:01:59.076Z,99.90
2023-04-23T21:04:41.353Z,99.90
2023-04-23T21:07:19.889Z,99.90
2023-04-23T21:10:06.076Z,99.90
2023-04-23T21:12:44.625Z,99.90
2023-04-23T21:15:38.382Z,99.90
2023-04-23T21:18:19.471Z,99.90
2023-04-23T21:21:03.963Z,99.90
2023-04-23T21:23:46.436Z,99.90
2023-04-23T21:26:28.055Z,99.90
2023-04-23T21:29:06.181Z,99.90
2023-04-23T21:38:47.164Z,99.90
2023-04-23T21:41:59.548Z,99.90
2023-04-23T21:44:35.999Z,99.90
2023-04-23T21:47:38.612Z,99.90
2023-04-23T21:50:18.159Z,99.90
2023-04-23T21:53:00.810Z,99.90
2023-04-23T21:55:40.762Z,99.90
2023-04-23T22:01:37.743Z,99.90
2023-04-23T22:04:28.717Z,99.90
2023-04-23T22:07:20.622Z,99.90
2023-04-23T22:10:20.420Z,99.90
2023-04-23T22:13:00.121Z,99.90
2023-04-23T22:16:28.014Z,99.90
2023-04-23T22:19:28.060Z,99.90
2023-04-23T22:24:55.685Z,99.90
2023-04-23T22:27:40.110Z,99.90
2023-04-23T22:36:44.252Z,99.90
2023-04-23T23:02:16.594Z,99.90
2023-04-23T23:04:59.643Z,99.90
2023-04-23T23:07:35.032Z,99.90
2023-04-23T23:10:16.036Z,99.90
2023-04-23T23:12:55.473Z,99.90
2023-04-23T23:15:40.631Z,99.90
2023-04-23T23:18:21.534Z,99.90
2023-04-23T23:21:13.560Z,99.90
2023-04-23T23:23:58.463Z,99.90
2023-04-23T23:26:43.782Z,99.90
2023-04-23T23:29:24.066Z,99.90
2023-04-23T23:32:23.326Z,99.90
2023-04-23T23:35:08.714Z,99.90
2023-04-23T23:40:55.288Z,99.90
2023-04-23T23:43:37.245Z,99.90
2023-04-23T23:46:19.174Z,99.90
2023-04-23T23:49:00.948Z,99.90
2023-04-23T23:51:49.890Z,99.90
2023-04-23T23:54:52.892Z,99.90
2023-04-23T23:57:38.884Z,99.90
